Capitol Logistics 3255


KEYW
Key West International Airport
Key West, Florida, US
KMIA
Miami International Airport
Miami, Florida, US

Activity Log

Date Flight Route Aircraft Duration
07/05/2020 CPX3255 CARNU DVALL DVALL3 SF34 1h 11m
10/23/2019 CPX655 CARNU DVALL DVALL3 SF34 0h 41m
06/16/2019 CPX655 CARNU DVALL DVALL3 SF34 0h 37m
06/07/2019 CPX655 CARNU DVALL DVALL3 SF34 0h 36m
04/30/2019 CPX655 CARNU DVALL DVALL3 SF34 0h 35m
04/20/2019 CPX655 VFR SF34 0h 35m
04/03/2019 CPX655 CARNU DVALL DVALL3 SF34 0h 50m
03/21/2019 CPX655 CARNU DVALL DVALL3 SF34 0h 52m
03/06/2019 CPX655 CARNU DVALL DVALL3 SF34 0h 54m

Route Details

Aircraft Information
Primary: Saab 340AF
Backup: Not Available
Route Data
Distance: 113nm
Sched. Duration: 1h 05m
Avg. Duration: 0h 50m (-55m)
Times Flown: 9
Recm'd Route: CARNU DVALL DVALL3
Planned Altitude: 15,000ft
Origin Wx: KEYW 281953Z 11013KT 10SM FEW020 29/24 A2994 RMK AO2 SLP138 T02940244
Dest. Wx: KMIA 281953Z 13012KT 10SM SCT030 SCT250 31/23 A2997 RMK AO2 SLP148 T03060228
Notes:

Financial History
Total Freight: 53,040lbs
Average Load: 5,893lbs/flt
Fuel Used: 6,089lbs
Avg. Fuel Used: 677lbs/flt
Fuel Expense: $6,393
Avg. Fuel Expense: $710
Avg. Fuel Cost: $1.05/lbs
Total Gross Income: $60,097
Pilot Pay: $1,581
Total Expenses: $6,958
Total Revenue: $45,276
Average Revenue: $6,677.41